createdAt,value
2023-03-24T00:30:20.956Z,10.73
2023-03-24T00:42:33.255Z,10.79
2023-03-24T01:03:47.888Z,10.87
2023-03-24T01:06:14.647Z,10.87
2023-03-24T01:09:07.513Z,10.89
2023-03-24T01:16:48.607Z,10.74
2023-03-24T01:29:37.445Z,10.32
2023-03-24T01:46:35.761Z,10.13
2023-03-24T01:58:30.224Z,10.37
2023-03-24T02:02:55.746Z,10.51
2023-03-24T02:10:22.188Z,10.80
2023-03-24T02:59:20.818Z,10.32
2023-03-24T03:11:05.093Z,9.76
2023-03-24T03:28:01.733Z,9.40
2023-03-24T03:43:50.503Z,9.23
2023-03-24T04:05:26.173Z,9.28
2023-03-24T04:09:51.763Z,9.35
2023-03-24T04:12:23.318Z,9.42
2023-03-24T04:24:40.361Z,9.75
2023-03-24T05:27:10.021Z,11.26
2023-03-24T05:29:37.954Z,11.37
2023-03-24T05:32:07.425Z,11.49
2023-03-24T05:34:35.048Z,11.60
2023-03-24T05:37:17.563Z,11.70
2023-03-24T05:39:48.578Z,11.79
2023-03-24T05:47:04.097Z,12.01
2023-03-24T05:49:31.442Z,12.08
2023-03-24T05:52:00.167Z,12.16
2023-03-24T05:54:27.716Z,12.23
2023-03-24T05:57:16.546Z,12.32
2023-03-24T06:00:10.624Z,12.41
2023-03-24T06:02:50.945Z,12.49
2023-03-24T06:05:45.288Z,12.59
2023-03-24T06:08:21.654Z,12.67
2023-03-24T06:10:52.854Z,12.75
2023-03-24T06:13:20.613Z,12.84
2023-03-24T06:15:49.461Z,12.93
2023-03-24T06:18:34.456Z,13.05
2023-03-24T06:21:06.800Z,13.16
2023-03-24T06:23:35.277Z,13.26
2023-03-24T06:26:12.242Z,13.35
2023-03-24T06:29:24.086Z,13.46
2023-03-24T06:36:12.528Z,13.64
2023-03-24T06:51:03.734Z,14.35
2023-03-24T06:53:35.117Z,14.62
2023-03-24T06:56:05.710Z,14.71
2023-03-24T06:58:39.926Z,14.78
2023-03-24T07:01:10.257Z,14.84
2023-03-24T07:03:58.888Z,14.87
2023-03-24T07:06:46.570Z,14.90
2023-03-24T07:09:30.906Z,14.90
2023-03-24T07:12:01.309Z,14.88
2023-03-24T07:14:29.762Z,14.88
2023-03-24T07:17:02.684Z,14.87
2023-03-24T07:19:46.698Z,14.86
2023-03-24T07:22:48.383Z,14.84
2023-03-24T07:26:20.158Z,14.81
2023-03-24T07:28:49.141Z,14.79
2023-03-24T07:31:40.268Z,14.77
2023-03-24T07:34:11.716Z,14.75
2023-03-24T07:36:42.138Z,14.75
2023-03-24T07:39:14.721Z,14.75
2023-03-24T07:41:43.220Z,14.77
2023-03-24T07:44:23.872Z,14.83
2023-03-24T07:46:57.183Z,14.89
2023-03-24T07:49:26.460Z,14.95
2023-03-24T07:52:07.001Z,15.04
2023-03-24T07:54:41.362Z,15.13
2023-03-24T07:57:11.054Z,15.21
2023-03-24T07:59:42.409Z,15.27
2023-03-24T08:02:52.541Z,15.33
2023-03-24T08:05:53.651Z,15.38
2023-03-24T08:08:43.189Z,15.45
2023-03-24T08:11:11.996Z,15.48
2023-03-24T08:13:42.110Z,15.50
2023-03-24T08:16:12.344Z,15.51
2023-03-24T08:18:43.426Z,15.53
2023-03-24T08:21:16.456Z,15.58
2023-03-24T08:23:45.052Z,15.62
2023-03-24T08:26:14.343Z,15.70
2023-03-24T08:28:45.154Z,15.79
2023-03-24T08:31:13.951Z,15.89
2023-03-24T08:33:51.458Z,15.97
2023-03-24T08:36:19.712Z,16.04
2023-03-24T08:38:48.524Z,16.13
2023-03-24T08:41:18.491Z,16.21
2023-03-24T08:43:47.849Z,16.32
2023-03-24T08:46:17.011Z,16.44
2023-03-24T08:48:46.029Z,16.55
2023-03-24T08:51:15.737Z,16.66
2023-03-24T08:53:44.803Z,16.74
2023-03-24T08:56:14.233Z,16.82
2023-03-24T08:58:43.674Z,16.89
2023-03-24T09:01:13.537Z,16.97
2023-03-24T09:03:42.362Z,17.05
2023-03-24T09:06:11.981Z,17.14
2023-03-24T09:08:40.918Z,17.25
2023-03-24T09:11:17.842Z,17.36
2023-03-24T09:13:49.515Z,17.49
2023-03-24T09:16:18.794Z,17.60
2023-03-24T09:18:53.641Z,17.70
2023-03-24T09:21:23.024Z,17.82
2023-03-24T09:23:52.527Z,17.94
2023-03-24T09:26:21.634Z,18.04
2023-03-24T09:28:53.810Z,18.13
2023-03-24T09:31:25.157Z,18.19
2023-03-24T09:33:54.030Z,18.19
2023-03-24T09:36:22.827Z,18.19
2023-03-24T09:38:51.836Z,18.19
2023-03-24T09:41:30.791Z,18.19
2023-03-24T09:44:04.346Z,18.14
2023-03-24T09:46:45.397Z,18.09
2023-03-24T09:49:18.003Z,18.06
2023-03-24T09:51:47.400Z,18.05
2023-03-24T09:54:35.454Z,18.05
2023-03-24T09:57:05.899Z,18.05
2023-03-24T09:59:39.467Z,18.02
2023-03-24T10:02:13.179Z,18.02
2023-03-24T10:04:42.276Z,18.07
2023-03-24T10:07:35.463Z,18.19
2023-03-24T10:10:35.760Z,18.37
2023-03-24T10:13:11.946Z,18.50
2023-03-24T10:15:51.711Z,18.60
2023-03-24T10:18:33.484Z,18.73
2023-03-24T10:21:29.692Z,18.85
2023-03-24T10:24:17.006Z,18.98
2023-03-24T10:26:52.492Z,19.13
2023-03-24T10:29:34.056Z,19.25
2023-03-24T10:32:22.434Z,19.35
2023-03-24T10:34:59.208Z,19.41
2023-03-24T10:37:29.444Z,19.48
2023-03-24T10:40:00.933Z,19.56
2023-03-24T10:42:33.748Z,19.61
2023-03-24T10:45:03.652Z,19.64
2023-03-24T10:47:33.428Z,19.61
2023-03-24T10:50:12.315Z,19.56
2023-03-24T10:53:49.195Z,19.45
2023-03-24T10:56:39.594Z,19.41
2023-03-24T10:59:21.280Z,19.43
2023-03-24T11:01:49.773Z,19.50
2023-03-24T11:04:20.409Z,19.58
2023-03-24T11:11:26.690Z,19.72
2023-03-24T11:13:58.951Z,19.73
2023-03-24T11:16:39.378Z,19.73
2023-03-24T11:19:23.966Z,19.75
2023-03-24T11:21:53.774Z,19.75
2023-03-24T11:24:30.269Z,19.72
2023-03-24T11:27:02.467Z,19.67
2023-03-24T11:29:39.328Z,19.64
2023-03-24T11:32:25.929Z,19.60
2023-03-24T11:35:05.048Z,19.57
2023-03-24T11:37:36.390Z,19.60
2023-03-24T11:40:24.962Z,19.71
2023-03-24T11:42:58.472Z,19.88
2023-03-24T11:45:41.660Z,19.97
2023-03-24T11:48:21.313Z,19.98
2023-03-24T11:50:49.797Z,19.96
2023-03-24T11:53:26.156Z,19.95
2023-03-24T11:56:09.491Z,19.90
2023-03-24T11:58:41.860Z,19.80
2023-03-24T12:01:22.146Z,19.77
2023-03-24T12:04:13.028Z,19.75
